Terminal Aerodrome Forecast
Issued by NWS

Home | Current Version | Previous Version | Graphics & Text | Print | Product List | Glossary On
Versions: 1 2 3 4 5 6 7 8 9 10 11 12
000
FTUS43 KMPX 091100
TAFAXN
TAF
KAXN 091120Z 0912/1012 29008KT P6SM SCT080
     FM091500 31009KT 6SM FU VV120
     FM100100 VRB03KT P6SM SKC=

USA.gov is the U.S. government's official web portal to all federal, state and local government web resources and services.